• Join FlightAware (Why Join?)
  • Login
  • US Flag 
06:51AM EDT


 

Airport Tracker/Info


-or-


 

Live Flight TrackerFlight Track Log ✈ N315CJ ✈ 07-Apr-2014 ✈ KAPF - KPBI

Flight Track Log - Related Links

Times and Time Zones

All times are in EDT time to prevent confusion due to time zone crossing. See the N315CJ flight status page for this flight to view local times or setup timezone preferences in your user account.

Time Position Orientation Groundspeed Altitude Reporting Facility
EDT Latitude Longitude Course Direction KTS MPH feet Rate Location/Type
03:23PM 26.1575 -81.8628 42° Northeast 201 231 4,500  Level Miami Center
03:24PM 26.2133 -81.8836 341° North 243 280 7,500 5,220 Climbing Miami Center
03:25PM 26.2908 -81.8706 North 255 293 15,000 3,720 Climbing Miami Center
03:26PM 26.3508 -81.8269 33° Northeast 263 303 15,000  Level Miami Center
03:27PM 26.3933 -81.7431 60° Northeast 257 296 15,000  Level Miami Center
03:28PM 26.5471 -81.7362 42° Northeast  Level FlightAware Approximate
03:28PM 26.4383 -81.6519 61° Northeast 348 400 15,000  Level Miami Center
03:29PM 26.4872 -81.5589 60° Northeast 348 400 15,000  Level Miami Center
03:30PM 26.5361 -81.4633 60° Northeast 348 400 15,000  Level Miami Center
03:31PM 26.5853 -81.3656 61° Northeast 348 400 15,000  Level Miami Center
03:32PM 26.6319 -81.2697 61° Northeast 343 395 15,000  Level Miami Center
03:33PM 26.6872 -81.1625 60° Northeast 355 409 15,000 -540 Level Miami Center
03:34PM 26.7361 -81.0667 60° Northeast 355 409 14,000 -1,380 Descending Miami Center
03:35PM 26.7783 -80.9750 63° Northeast 340 391 12,300 -1,800 Descending Miami Center
03:36PM 26.8225 -80.8883 60° Northeast 334 384 10,500 -1,560 Descending Miami Center
03:41PM 26.7429 -80.4424 69° East 300 345 2,000 -1,320 Descending FlightAware ADS-B (RJTF)
03:42PM 26.7301 -80.3894 105° East 219 252 2,000  Level FlightAware ADS-B (RJTF)
03:43PM 26.7219 -80.3563 106° East 217 250 2,000  Level FlightAware ADS-B (RJTF)
03:43PM 26.7177 -80.3395 105° East 205 236 2,000  Level FlightAware ADS-B (RJTF)
03:43PM 26.7140 -80.3241 105° East 197 227 2,000  Level FlightAware ADS-B (RJTF)
03:43PM 26.7107 -80.3106 105° East 193 222 2,000  Level FlightAware ADS-B (RJTF)
03:44PM 26.7072 -80.2959 105° East 184 212 2,000  Level FlightAware ADS-B (RJTF)
03:44PM 26.7043 -80.2842 105° East 177 204 2,000  Level FlightAware ADS-B (RJTF)
03:44PM 26.7009 -80.2697 104° East 178 205 2,000  Level FlightAware ADS-B (RJTF)
03:44PM 26.6977 -80.2567 106° East 179 206 2,000 180 Level FlightAware ADS-B (RJTF)
03:45PM 26.6932 -80.2428 111° Southeast 174 200 2,100  Climbing FlightAware ADS-B (RJTF)
03:45PM 26.6895 -80.2310 106° East 165 190 2,000 -420 Descending FlightAware ADS-B (RJTF)
03:45PM 26.6887 -80.2193 92° East 158 182 1,900 -420 Descending FlightAware ADS-B (RJTF)
03:45PM 26.6875 -80.2076 96° East 151 174 1,800 -600 Descending FlightAware ADS-B (RJTF)
03:46PM 26.6869 -80.1960 93° East 149 171 1,600 -840 Descending FlightAware ADS-B (RJTF)
03:46PM 26.6863 -80.1843 94° East 151 174 1,400 -840 Descending FlightAware ADS-B (RJTF)
03:46PM 26.6859 -80.1725 93° East 150 173 1,200 -600 Descending FlightAware ADS-B (RJTF)
03:46PM 26.6855 -80.1627 93° East 147 169 1,100 -420 Descending FlightAware ADS-B (RJTF)
03:52PM 26.6832 -80.0956 50° Northeast  Level Estimated
03:53PM 26.6832 -80.0956 146° Southeast  Level Estimated
03:54PM 26.6832 -80.0956 50° Northeast  Level Estimated
03:55PM 26.6832 -80.0956 146° Southeast  Level Estimated
03:56PM 26.6832 -80.0956 50° Northeast  Level Estimated
03:57PM 26.6832 -80.0956 146° Southeast  Level Estimated